createdAt,value
2019-03-04T00:01:26.500Z,36.80
2019-03-04T00:03:54.907Z,36.40
2019-03-04T00:06:23.320Z,36.70
2019-03-04T00:08:51.767Z,36.70
2019-03-04T00:11:20.244Z,36.80
2019-03-04T00:13:48.587Z,36.70
2019-03-04T00:16:17.035Z,37.20
2019-03-04T00:18:45.462Z,36.80
2019-03-04T00:21:13.911Z,36.70
2019-03-04T00:23:42.352Z,36.60
2019-03-04T00:26:10.755Z,36.50
2019-03-04T00:28:39.179Z,36.50
2019-03-04T00:31:07.625Z,36.40
2019-03-04T00:33:36.043Z,36.60
2019-03-04T00:36:04.463Z,36.50
2019-03-04T00:38:32.908Z,36.50
2019-03-04T00:41:01.330Z,36.50
2019-03-04T00:43:29.744Z,36.40
2019-03-04T00:45:58.179Z,36.40
2019-03-04T00:48:26.586Z,36.30
2019-03-04T00:50:55.005Z,36.40
2019-03-04T00:53:23.442Z,36.30
2019-03-04T00:55:51.890Z,36.40
2019-03-04T00:58:20.309Z,36.30
2019-03-04T01:00:48.749Z,36.00
2019-03-04T01:03:17.155Z,36.90
2019-03-04T01:05:45.573Z,36.30
2019-03-04T01:08:14.011Z,36.30
2019-03-04T01:10:42.441Z,36.30
2019-03-04T01:13:10.850Z,36.30
2019-03-04T01:15:39.290Z,36.20
2019-03-04T01:18:07.711Z,36.10
2019-03-04T01:20:36.116Z,36.60
2019-03-04T01:23:04.554Z,36.20
2019-03-04T01:25:32.985Z,36.10
2019-03-04T01:28:01.392Z,36.20
2019-03-04T01:30:29.834Z,36.10
2019-03-04T01:32:58.250Z,36.00
2019-03-04T01:35:26.666Z,36.00
2019-03-04T01:37:55.098Z,36.00
2019-03-04T01:40:24.050Z,35.90
2019-03-04T01:42:52.818Z,35.90
2019-03-04T01:45:21.255Z,36.10
2019-03-04T01:47:50.092Z,35.90
2019-03-04T01:50:18.783Z,35.80
2019-03-04T01:52:47.386Z,35.90
2019-03-04T01:55:17.340Z,35.80
2019-03-04T01:57:45.754Z,35.80
2019-03-04T02:00:16.028Z,35.90
2019-03-04T02:02:44.442Z,35.80
2019-03-04T02:05:12.858Z,35.90
2019-03-04T02:07:41.304Z,35.90
2019-03-04T02:10:15.578Z,35.70
2019-03-04T02:12:44.079Z,35.80
2019-03-04T02:15:14.554Z,35.80
2019-03-04T02:17:42.979Z,35.80
2019-03-04T02:20:13.540Z,35.70
2019-03-04T02:22:41.975Z,35.70
2019-03-04T02:25:12.735Z,35.60
2019-03-04T02:27:43.882Z,35.50
2019-03-04T02:30:15.728Z,35.50
2019-03-04T02:32:44.139Z,35.60
2019-03-04T02:35:12.548Z,35.60
2019-03-04T02:37:40.993Z,35.60
2019-03-04T02:40:09.414Z,35.50
2019-03-04T02:42:37.833Z,35.50
2019-03-04T02:45:09.553Z,35.40
2019-03-04T02:47:37.963Z,35.50
2019-03-04T02:50:07.528Z,35.50
2019-03-04T02:52:35.975Z,35.40
2019-03-04T02:55:06.415Z,35.40
2019-03-04T02:57:34.825Z,35.40
2019-03-04T03:00:04.120Z,35.30
2019-03-04T03:02:32.530Z,35.30
2019-03-04T03:05:00.947Z,35.20
2019-03-04T03:07:29.388Z,35.20
2019-03-04T03:09:57.810Z,35.30
2019-03-04T03:12:26.277Z,35.30
2019-03-04T03:14:54.725Z,35.20
2019-03-04T03:17:23.166Z,35.10
2019-03-04T03:19:51.559Z,35.00
2019-03-04T03:22:19.991Z,35.10
2019-03-04T03:24:48.427Z,35.30
2019-03-04T03:27:16.860Z,35.10
2019-03-04T03:29:45.302Z,35.00
2019-03-04T03:32:13.725Z,35.00
2019-03-04T03:34:42.123Z,35.20
2019-03-04T03:37:10.562Z,35.10
2019-03-04T03:39:38.983Z,35.00
2019-03-04T03:42:07.391Z,35.00
2019-03-04T03:44:35.831Z,35.00
2019-03-04T03:47:04.250Z,35.00
2019-03-04T03:49:32.669Z,34.90
2019-03-04T03:52:01.096Z,34.80
2019-03-04T03:54:29.514Z,35.00
2019-03-04T03:56:57.938Z,34.90
2019-03-04T03:59:26.415Z,34.90
2019-03-04T04:01:54.846Z,34.90
2019-03-04T04:04:23.243Z,34.90
2019-03-04T04:06:51.704Z,35.00
2019-03-04T04:09:20.125Z,34.80
2019-03-04T04:11:48.539Z,34.80
2019-03-04T04:14:16.981Z,34.80
2019-03-04T04:16:45.406Z,34.90
2019-03-04T04:19:13.819Z,34.90
2019-03-04T04:21:42.284Z,34.80
2019-03-04T04:24:10.712Z,34.70
2019-03-04T04:26:39.129Z,34.60
2019-03-04T04:29:09.231Z,34.60
2019-03-04T04:31:37.715Z,34.60
2019-03-04T04:34:06.138Z,34.70
2019-03-04T04:36:34.591Z,35.40
2019-03-04T04:39:03.376Z,34.80
2019-03-04T04:41:31.803Z,34.60
2019-03-04T04:44:00.256Z,34.70
2019-03-04T04:46:49.385Z,34.70
2019-03-04T04:49:17.834Z,34.60
2019-03-04T04:51:46.257Z,34.60
2019-03-04T04:54:14.674Z,34.40
2019-03-04T04:56:43.111Z,34.60
2019-03-04T04:59:11.530Z,34.50
2019-03-04T05:01:40.010Z,34.50
2019-03-04T05:04:08.488Z,34.50
2019-03-04T05:06:36.898Z,34.50
2019-03-04T05:09:06.186Z,34.50
2019-03-04T05:11:34.620Z,34.40
2019-03-04T05:14:03.038Z,34.40
2019-03-04T05:16:32.948Z,34.50
2019-03-04T05:19:01.669Z,34.60
2019-03-04T05:21:30.100Z,33.20
2019-03-04T05:23:58.548Z,32.50
2019-03-04T05:26:26.975Z,32.50
2019-03-04T05:28:55.404Z,32.40
2019-03-04T05:31:23.825Z,33.00
2019-03-04T05:33:52.615Z,33.20
2019-03-04T05:36:21.039Z,33.20
2019-03-04T05:38:49.452Z,33.50
2019-03-04T05:41:17.896Z,32.90
2019-03-04T05:43:46.305Z,32.80
2019-03-04T05:46:14.730Z,32.70
2019-03-04T05:48:43.162Z,33.20
2019-03-04T05:51:11.583Z,32.80
2019-03-04T05:53:39.999Z,33.30
2019-03-04T05:56:08.439Z,33.30
2019-03-04T05:58:36.856Z,33.30
2019-03-04T06:01:22.604Z,33.10
2019-03-04T06:03:57.213Z,33.20
2019-03-04T06:06:43.600Z,33.50
2019-03-04T06:09:14.694Z,33.20
2019-03-04T06:11:43.126Z,34.20
2019-03-04T06:14:11.552Z,33.60
2019-03-04T06:16:47.041Z,33.60
2019-03-04T06:19:10.347Z,33.40
2019-03-04T06:21:38.791Z,33.60
2019-03-04T06:24:07.212Z,33.80
2019-03-04T06:26:36.021Z,33.70
2019-03-04T06:29:04.467Z,33.80
2019-03-04T06:31:32.883Z,33.70
2019-03-04T06:34:01.295Z,33.80
2019-03-04T06:36:29.754Z,34.00
2019-03-04T06:38:58.171Z,33.90
2019-03-04T06:41:26.591Z,33.60
2019-03-04T06:43:55.512Z,33.80
2019-03-04T06:46:23.927Z,33.90
2019-03-04T06:48:52.360Z,34.20
2019-03-04T06:51:32.804Z,32.30
2019-03-04T06:54:16.542Z,32.70
2019-03-04T06:56:54.611Z,32.50
2019-03-04T06:59:38.071Z,32.90
2019-03-04T07:02:20.803Z,32.70
2019-03-04T07:05:19.971Z,33.00
2019-03-04T07:07:48.411Z,32.80
2019-03-04T07:10:16.858Z,32.90
2019-03-04T07:12:45.423Z,33.00
2019-03-04T07:15:14.035Z,33.10
2019-03-04T07:17:42.458Z,33.10
2019-03-04T07:20:15.838Z,33.20
2019-03-04T07:22:44.283Z,33.30
2019-03-04T07:25:12.769Z,33.40
2019-03-04T07:27:41.187Z,33.50
2019-03-04T07:30:19.847Z,33.40
2019-03-04T07:32:48.271Z,33.20
2019-03-04T07:35:16.678Z,33.40
2019-03-04T07:37:45.137Z,33.40
2019-03-04T07:40:18.695Z,33.40
2019-03-04T07:42:47.107Z,33.70
2019-03-04T07:45:15.547Z,33.70
2019-03-04T07:47:43.967Z,33.70
2019-03-04T07:50:12.384Z,33.70
2019-03-04T07:52:40.847Z,33.80
2019-03-04T07:55:09.271Z,33.60
2019-03-04T07:57:37.679Z,33.90
2019-03-04T08:00:11.982Z,33.80
2019-03-04T08:02:40.410Z,33.70
2019-03-04T08:05:10.799Z,33.70
2019-03-04T08:07:50.871Z,33.70
2019-03-04T08:10:31.674Z,33.90
2019-03-04T08:13:22.075Z,33.90
2019-03-04T08:15:50.588Z,33.80
2019-03-04T08:18:18.991Z,34.60
2019-03-04T08:20:47.429Z,34.00
2019-03-04T08:23:15.841Z,34.00
2019-03-04T08:25:44.255Z,33.70
2019-03-04T08:28:13.140Z,33.80
2019-03-04T08:30:41.556Z,33.70
2019-03-04T08:33:09.974Z,33.70
2019-03-04T08:35:38.412Z,33.80
2019-03-04T08:38:06.823Z,33.90
2019-03-04T08:40:35.243Z,33.60
2019-03-04T08:43:03.663Z,33.40
2019-03-04T08:45:32.071Z,33.40
2019-03-04T08:48:00.621Z,33.90
2019-03-04T08:50:29.050Z,33.80
2019-03-04T08:52:57.461Z,33.20
2019-03-04T08:55:25.877Z,33.30
2019-03-04T08:57:54.318Z,33.40
2019-03-04T09:00:25.523Z,33.30
2019-03-04T09:02:54.016Z,33.50
2019-03-04T09:05:22.467Z,33.40
2019-03-04T09:07:50.948Z,33.40
2019-03-04T09:10:27.490Z,33.30
2019-03-04T09:12:56.083Z,33.40
2019-03-04T09:15:24.563Z,33.20
2019-03-04T09:17:52.983Z,33.20
2019-03-04T09:20:21.875Z,33.50
2019-03-04T09:22:50.760Z,33.10
2019-03-04T09:25:30.453Z,33.20
2019-03-04T09:27:55.211Z,33.40
2019-03-04T09:30:23.695Z,33.40
2019-03-04T09:32:52.132Z,33.40
2019-03-04T09:35:20.618Z,33.40
2019-03-04T09:37:49.095Z,33.40
2019-03-04T09:40:22.617Z,33.10
2019-03-04T09:42:51.991Z,33.30
2019-03-04T09:45:20.470Z,33.30
2019-03-04T09:47:48.894Z,33.40
2019-03-04T09:50:27.647Z,33.50
2019-03-04T09:52:56.063Z,33.40
2019-03-04T09:55:24.607Z,33.10
2019-03-04T09:57:53.050Z,34.20
2019-03-04T10:00:33.242Z,33.40
2019-03-04T10:03:24.587Z,33.30
2019-03-04T10:06:29.527Z,33.30
2019-03-04T10:09:34.539Z,33.50
2019-03-04T10:12:15.187Z,33.40
2019-03-04T10:15:08.563Z,34.00
2019-03-04T10:17:44.161Z,33.40
2019-03-04T10:20:27.943Z,33.40
2019-03-04T10:23:14.639Z,33.30
2019-03-04T10:26:06.078Z,33.30
2019-03-04T10:28:58.419Z,33.30
2019-03-04T10:31:46.890Z,33.10
2019-03-04T10:34:24.224Z,33.10
2019-03-04T10:37:07.971Z,33.10
2019-03-04T10:39:52.363Z,33.00
2019-03-04T10:42:42.360Z,33.10
2019-03-04T10:45:26.160Z,32.90
2019-03-04T10:47:54.591Z,33.00
2019-03-04T10:50:23.003Z,32.90
2019-03-04T10:52:51.431Z,32.80
2019-03-04T10:55:19.870Z,32.80
2019-03-04T10:57:48.277Z,32.70
2019-03-04T11:00:18.626Z,32.70
2019-03-04T11:02:47.084Z,32.80
2019-03-04T11:05:15.487Z,32.70
2019-03-04T11:07:43.911Z,32.70
2019-03-04T11:10:14.039Z,32.70
2019-03-04T11:12:42.443Z,32.60
2019-03-04T11:15:22.680Z,32.60
2019-03-04T11:17:51.094Z,32.70
2019-03-04T11:20:19.505Z,32.60
2019-03-04T11:22:47.942Z,32.60
2019-03-04T11:25:17.201Z,32.50
2019-03-04T11:27:45.614Z,32.50
2019-03-04T11:30:17.773Z,32.40
2019-03-04T11:32:46.179Z,33.10
2019-03-04T11:35:14.591Z,32.50
2019-03-04T11:37:44.272Z,32.60
2019-03-04T11:40:17.296Z,32.40
2019-03-04T11:42:45.714Z,32.40
2019-03-04T11:45:15.432Z,32.20
2019-03-04T11:47:43.842Z,32.20
2019-03-04T11:50:16.227Z,32.20
2019-03-04T11:52:44.665Z,32.20
2019-03-04T11:55:16.095Z,32.40
2019-03-04T11:57:44.590Z,32.30
2019-03-04T12:00:20.842Z,31.60
2019-03-04T12:02:49.254Z,31.50
2019-03-04T12:05:17.671Z,32.20
2019-03-04T12:07:46.112Z,32.00
2019-03-04T12:10:15.792Z,31.90
2019-03-04T12:12:44.278Z,31.50
2019-03-04T12:15:18.774Z,31.80
2019-03-04T12:17:47.187Z,31.40
2019-03-04T12:20:15.664Z,30.90
2019-03-04T12:22:44.103Z,30.80
2019-03-04T12:25:16.527Z,30.60
2019-03-04T12:27:44.933Z,30.50
2019-03-04T12:30:26.658Z,30.70
2019-03-04T12:32:55.068Z,30.50
2019-03-04T12:35:23.574Z,30.50
2019-03-04T12:37:52.007Z,30.50
2019-03-04T12:40:22.718Z,30.40
2019-03-04T12:42:51.126Z,30.30
2019-03-04T12:45:34.017Z,30.20
2019-03-04T12:47:55.766Z,30.10
2019-03-04T12:50:28.308Z,30.00
2019-03-04T12:52:57.778Z,30.10
2019-03-04T12:55:26.194Z,30.00
2019-03-04T12:57:54.602Z,30.20
2019-03-04T13:00:27.598Z,30.30
2019-03-04T13:02:57.814Z,30.00
2019-03-04T13:05:26.075Z,30.10
2019-03-04T13:07:54.520Z,30.10
2019-03-04T13:10:22.930Z,30.10
2019-03-04T13:12:51.360Z,30.00
2019-03-04T13:15:23.050Z,30.60
2019-03-04T13:17:51.455Z,30.30
2019-03-04T13:20:22.107Z,30.70
2019-03-04T13:22:50.566Z,30.90
2019-03-04T13:25:19.044Z,31.50
2019-03-04T13:27:47.445Z,32.00
2019-03-04T13:30:21.910Z,32.50
2019-03-04T13:32:50.346Z,32.60
2019-03-04T13:35:24.765Z,33.20
2019-03-04T13:37:52.054Z,33.30
2019-03-04T13:40:20.470Z,33.10
2019-03-04T13:42:49.628Z,33.40
2019-03-04T13:45:18.399Z,33.10
2019-03-04T13:47:46.870Z,33.40
2019-03-04T13:50:24.384Z,33.50
2019-03-04T13:52:52.794Z,33.70
2019-03-04T13:55:21.215Z,33.90
2019-03-04T13:57:49.666Z,33.80
2019-03-04T14:00:26.922Z,33.80
2019-03-04T14:02:55.346Z,33.70
2019-03-04T14:05:24.050Z,33.90
2019-03-04T14:07:52.470Z,33.80
2019-03-04T14:10:22.830Z,33.70
2019-03-04T14:12:51.265Z,33.80
2019-03-04T14:15:34.918Z,34.00
2019-03-04T14:18:03.365Z,33.90
2019-03-04T14:20:31.784Z,34.00
2019-03-04T14:23:00.197Z,34.10
2019-03-04T14:25:28.626Z,34.20
2019-03-04T14:27:57.111Z,34.10
2019-03-04T14:30:25.534Z,34.00
2019-03-04T14:32:54.015Z,34.00
2019-03-04T14:35:22.422Z,34.00
2019-03-04T14:37:50.830Z,34.20
2019-03-04T14:40:20.214Z,34.20
2019-03-04T14:42:48.641Z,34.20
2019-03-04T14:45:19.648Z,34.30
2019-03-04T14:47:48.525Z,34.30
2019-03-04T14:50:17.974Z,34.40
2019-03-04T14:52:46.382Z,34.20
2019-03-04T14:55:19.827Z,34.30
2019-03-04T14:57:48.246Z,34.70
2019-03-04T15:00:24.399Z,34.50
2019-03-04T15:02:52.826Z,34.10
2019-03-04T15:05:21.235Z,34.40
2019-03-04T15:07:49.647Z,34.40
2019-03-04T15:10:18.091Z,34.30
2019-03-04T15:12:46.501Z,34.40
2019-03-04T15:15:17.923Z,34.30
2019-03-04T15:17:48.254Z,34.30
2019-03-04T15:20:18.906Z,34.20
2019-03-04T15:22:47.317Z,34.30
2019-03-04T15:25:32.271Z,34.40
2019-03-04T15:28:13.076Z,34.30
2019-03-04T15:30:43.325Z,34.50
2019-03-04T15:33:17.950Z,34.30
2019-03-04T15:35:41.807Z,34.30
2019-03-04T15:38:10.249Z,34.30
2019-03-04T15:40:38.669Z,34.40
2019-03-04T15:43:07.079Z,34.50
2019-03-04T15:45:35.784Z,34.30
2019-03-04T15:48:04.263Z,34.50
2019-03-04T15:50:32.681Z,34.50
2019-03-04T15:53:01.113Z,34.50
2019-03-04T15:55:29.529Z,34.50
2019-03-04T15:57:57.958Z,34.30
2019-03-04T16:00:26.396Z,32.70
2019-03-04T16:02:54.874Z,33.90
2019-03-04T16:05:23.297Z,34.30
2019-03-04T16:07:51.741Z,34.20
2019-03-04T16:10:29.883Z,34.20
2019-03-04T16:12:58.330Z,34.10
2019-03-04T16:15:26.743Z,34.30
2019-03-04T16:17:55.169Z,34.30
2019-03-04T16:20:23.908Z,34.30
2019-03-04T16:22:54.301Z,34.10
2019-03-04T16:25:22.708Z,34.20
2019-03-04T16:27:52.778Z,34.10
2019-03-04T16:30:22.226Z,34.20
2019-03-04T16:32:50.651Z,34.20
2019-03-04T16:35:19.079Z,34.20
2019-03-04T16:37:47.502Z,34.40
2019-03-04T16:40:20.216Z,34.20
2019-03-04T16:42:48.661Z,34.50
2019-03-04T16:45:19.375Z,34.40
2019-03-04T16:47:47.790Z,34.20
2019-03-04T16:50:17.970Z,34.20
2019-03-04T16:52:49.282Z,34.50
2019-03-04T16:55:17.694Z,34.60
2019-03-04T16:57:46.142Z,34.90
2019-03-04T17:00:18.914Z,34.80
2019-03-04T17:02:47.317Z,34.70
2019-03-04T17:05:17.309Z,34.80
2019-03-04T17:07:46.655Z,33.10
2019-03-04T17:10:21.388Z,34.30
2019-03-04T17:12:49.830Z,34.30
2019-03-04T17:15:19.894Z,34.30
2019-03-04T17:17:48.580Z,34.10
2019-03-04T17:20:18.185Z,34.10
2019-03-04T17:22:46.773Z,34.00
2019-03-04T17:25:23.435Z,34.00
2019-03-04T17:27:51.872Z,34.20
2019-03-04T17:30:24.437Z,34.40
2019-03-04T17:32:52.894Z,34.30
2019-03-04T17:35:22.138Z,34.20
2019-03-04T17:37:50.558Z,34.20
2019-03-04T17:40:26.263Z,34.50
2019-03-04T17:42:55.138Z,34.20
2019-03-04T17:45:24.800Z,34.50
2019-03-04T17:47:53.311Z,34.30
2019-03-04T17:50:42.824Z,34.00
2019-03-04T17:53:12.849Z,33.90
2019-03-04T17:55:41.263Z,34.00
2019-03-04T17:58:09.677Z,34.30
2019-03-04T18:00:39.757Z,34.60
2019-03-04T18:03:08.170Z,34.20
2019-03-04T18:05:36.668Z,34.30
2019-03-04T18:08:05.122Z,34.40
2019-03-04T18:10:33.541Z,34.60
2019-03-04T18:13:04.907Z,34.10
2019-03-04T18:15:38.509Z,33.60
2019-03-04T18:18:06.929Z,33.70
2019-03-04T18:20:35.342Z,34.00
2019-03-04T18:23:03.788Z,34.00
2019-03-04T18:25:41.435Z,34.00
2019-03-04T18:28:41.117Z,33.60
2019-03-04T18:31:12.788Z,33.90
2019-03-04T18:33:47.156Z,34.10
2019-03-04T18:36:27.614Z,33.70
2019-03-04T18:39:18.980Z,33.80
2019-03-04T18:41:59.469Z,33.80
2019-03-04T18:44:52.626Z,33.60
2019-03-04T18:47:30.250Z,33.60
2019-03-04T18:49:58.685Z,33.70
2019-03-04T18:52:27.105Z,33.30
2019-03-04T18:54:55.527Z,33.40
2019-03-04T18:57:23.981Z,33.30
2019-03-04T18:59:52.391Z,33.10
2019-03-04T19:02:20.815Z,33.40
2019-03-04T19:04:49.258Z,33.60
2019-03-04T19:07:17.667Z,33.60
2019-03-04T19:09:46.085Z,33.70
2019-03-04T19:12:14.525Z,33.60
2019-03-04T19:14:42.938Z,33.30
2019-03-04T19:17:11.348Z,33.60
2019-03-04T19:19:39.788Z,33.40
2019-03-04T19:22:08.196Z,33.30
2019-03-04T19:24:36.622Z,33.30
2019-03-04T19:27:05.065Z,33.60
2019-03-04T19:29:33.485Z,33.20
2019-03-04T19:32:01.991Z,32.70
2019-03-04T19:34:30.437Z,32.90
2019-03-04T19:36:58.844Z,33.00
2019-03-04T19:39:27.247Z,33.30
2019-03-04T19:41:55.692Z,33.10
2019-03-04T19:44:24.108Z,32.60
2019-03-04T19:46:52.516Z,32.70
2019-03-04T19:49:20.969Z,33.40
2019-03-04T19:51:49.373Z,33.20
2019-03-04T19:54:17.792Z,32.90
2019-03-04T19:56:46.237Z,33.00
2019-03-04T19:59:14.645Z,32.60
2019-03-04T20:01:43.057Z,32.70
2019-03-04T20:04:11.495Z,32.70
2019-03-04T20:06:39.908Z,33.00
2019-03-04T20:09:08.391Z,33.00
2019-03-04T20:11:36.829Z,32.90
2019-03-04T20:14:05.604Z,32.70
2019-03-04T20:16:34.007Z,32.80
2019-03-04T20:19:02.447Z,32.80
2019-03-04T20:21:30.863Z,32.50
2019-03-04T20:23:59.280Z,32.50
2019-03-04T20:26:27.717Z,33.00
2019-03-04T20:28:56.127Z,32.70
2019-03-04T20:31:24.541Z,32.70
2019-03-04T20:33:53.037Z,32.70
2019-03-04T20:36:21.423Z,33.00
2019-03-04T20:38:49.845Z,32.50
2019-03-04T20:41:18.285Z,32.70
2019-03-04T20:43:48.334Z,32.70
2019-03-04T20:46:16.768Z,32.60
2019-03-04T20:48:45.207Z,32.50
2019-03-04T20:51:13.662Z,32.80
2019-03-04T20:53:42.081Z,32.70
2019-03-04T20:56:10.511Z,32.70
2019-03-04T20:58:38.918Z,32.60
2019-03-04T21:01:07.342Z,32.50
2019-03-04T21:03:35.786Z,32.40
2019-03-04T21:06:04.183Z,32.50
2019-03-04T21:08:32.600Z,32.40
2019-03-04T21:11:01.061Z,32.60
2019-03-04T21:13:35.764Z,32.80
2019-03-04T21:15:59.698Z,32.90
2019-03-04T21:18:28.431Z,32.50
2019-03-04T21:20:56.920Z,32.60
2019-03-04T21:23:25.326Z,32.60
2019-03-04T21:25:57.038Z,32.90
2019-03-04T21:28:31.646Z,32.60
2019-03-04T21:31:14.860Z,32.90
2019-03-04T21:34:01.846Z,33.30
2019-03-04T21:36:36.056Z,32.70
2019-03-04T21:39:06.214Z,32.70
2019-03-04T21:41:37.884Z,32.60
2019-03-04T21:44:24.340Z,32.50
2019-03-04T21:47:11.196Z,32.60
2019-03-04T21:49:42.245Z,32.40
2019-03-04T21:52:20.537Z,32.40
2019-03-04T21:54:47.375Z,32.60
2019-03-04T21:57:19.086Z,32.60
2019-03-04T21:59:47.493Z,32.60
2019-03-04T22:02:22.587Z,32.50
2019-03-04T22:04:51.080Z,32.50
2019-03-04T22:07:19.487Z,32.50
2019-03-04T22:09:47.918Z,32.50
2019-03-04T22:12:16.335Z,32.50
2019-03-04T22:14:44.752Z,32.50
2019-03-04T22:17:13.572Z,32.70
2019-03-04T22:19:41.985Z,32.30
2019-03-04T22:22:10.393Z,32.70
2019-03-04T22:24:38.837Z,32.60
2019-03-04T22:27:07.272Z,32.60
2019-03-04T22:29:35.706Z,32.60
2019-03-04T22:32:04.124Z,32.60
2019-03-04T22:34:32.547Z,32.60
2019-03-04T22:37:00.956Z,32.70
2019-03-04T22:39:29.404Z,32.50
2019-03-04T22:41:57.801Z,32.70
2019-03-04T22:44:26.230Z,32.60
2019-03-04T22:46:54.657Z,32.50
2019-03-04T22:49:23.092Z,32.60
2019-03-04T22:51:51.483Z,32.80
2019-03-04T22:54:19.932Z,32.60
2019-03-04T22:56:48.379Z,32.50
2019-03-04T22:59:16.760Z,32.90
2019-03-04T23:01:47.626Z,32.80
2019-03-04T23:04:18.277Z,32.70
2019-03-04T23:07:01.815Z,32.60
2019-03-04T23:09:36.028Z,32.70
2019-03-04T23:12:20.170Z,32.70
2019-03-04T23:14:49.220Z,32.60
2019-03-04T23:17:17.635Z,32.80
2019-03-04T23:19:46.073Z,32.60
2019-03-04T23:22:14.483Z,32.60
2019-03-04T23:24:42.912Z,32.60
2019-03-04T23:27:11.354Z,32.70
2019-03-04T23:29:39.779Z,32.70
2019-03-04T23:32:08.193Z,32.60
2019-03-04T23:34:36.633Z,32.70
2019-03-04T23:37:05.039Z,32.60
2019-03-04T23:39:33.460Z,32.70
2019-03-04T23:42:01.902Z,32.80
2019-03-04T23:44:30.314Z,32.80
2019-03-04T23:46:58.729Z,32.70
2019-03-04T23:49:27.169Z,32.60
2019-03-04T23:51:56.015Z,32.60
2019-03-04T23:54:24.426Z,32.70
2019-03-04T23:56:52.867Z,32.60
2019-03-04T23:59:21.382Z,32.40
